Time;durP1;ratioP1;P1;durP2;ratioP2;P2;SDS_P1;SDS_P2;PMS_P1;PMS_P2;Temp;Humidity;BMP_temperature;BMP_pressure;BME280_temperature;BME280_humidity;BME280_pressure;Samples;Min_cycle;Max_cycle;Signal;HPM_P1;HPM_P2
2022/10/31 00:01:31;;;;;;;17.13;10.90;;;16.90;99.90;;;;;;5096774;28;20255;-32
2022/10/31 00:04:00;;;;;;;15.97;9.53;;;16.90;99.90;;;;;;5092411;28;20208;-31
2022/10/31 00:06:28;;;;;;;15.02;10.15;;;16.90;99.90;;;;;;5086609;28;20198;-32
2022/10/31 00:08:57;;;;;;;12.77;9.48;;;16.90;99.90;;;;;;5094228;28;21867;-32
2022/10/31 00:11:25;;;;;;;16.77;11.10;;;16.90;99.90;;;;;;5098711;28;20256;-32
2022/10/31 00:13:53;;;;;;;15.07;10.23;;;16.90;99.90;;;;;;5092827;28;20504;-34
2022/10/31 00:16:23;;;;;;;13.23;9.90;;;16.90;99.90;;;;;;5098275;28;20976;-34
2022/10/31 00:18:56;;;;;;;14.73;9.52;;;16.90;99.90;;;;;;5091706;28;20202;-34
2022/10/31 00:21:24;;;;;;;16.83;10.40;;;16.90;99.90;;;;;;5097535;28;20728;-33
2022/10/31 00:23:51;;;;;;;17.15;10.45;;;16.90;99.90;;;;;;5095025;28;20720;-31
2022/10/31 00:26:19;;;;;;;14.77;9.57;;;16.80;99.90;;;;;;5088848;28;20351;-32
2022/10/31 00:28:46;;;;;;;16.35;9.95;;;16.90;99.90;;;;;;5090916;28;20329;-32
2022/10/31 00:31:13;;;;;;;13.67;10.27;;;16.90;99.90;;;;;;5103013;28;20673;-32
2022/10/31 00:33:41;;;;;;;14.13;10.43;;;16.80;99.90;;;;;;5093563;28;20215;-32
2022/10/31 00:36:15;;;;;;;15.63;10.02;;;16.80;99.90;;;;;;5104028;28;20434;-32
2022/10/31 00:38:46;;;;;;;13.67;9.97;;;16.80;99.90;;;;;;5094843;28;20310;-32
2022/10/31 00:41:15;;;;;;;14.43;9.43;;;16.70;99.90;;;;;;5091337;28;20313;-32
2022/10/31 00:43:43;;;;;;;15.33;9.50;;;16.70;99.90;;;;;;5091337;28;20621;-32
2022/10/31 00:46:11;;;;;;;12.75;9.55;;;16.70;99.90;;;;;;5087478;28;20669;-32
2022/10/31 00:48:38;;;;;;;16.20;10.33;;;16.60;99.90;;;;;;5084856;28;20925;-32
2022/10/31 00:51:06;;;;;;;13.93;9.43;;;16.70;99.90;;;;;;5111638;27;20225;-32
2022/10/31 00:53:33;;;;;;;19.37;9.60;;;16.60;99.90;;;;;;5090823;28;20215;-31
2022/10/31 00:56:01;;;;;;;14.60;9.50;;;16.60;99.90;;;;;;5092922;28;20211;-32
2022/10/31 00:58:28;;;;;;;17.13;9.88;;;16.50;99.90;;;;;;5096577;28;20626;-32
2022/10/31 01:00:55;;;;;;;16.17;9.90;;;16.50;99.90;;;;;;5087543;28;20210;-32
2022/10/31 01:03:25;;;;;;;13.43;9.60;;;16.50;99.90;;;;;;5097658;28;20214;-32
2022/10/31 01:06:00;;;;;;;15.32;10.27;;;16.50;99.90;;;;;;5089192;28;20203;-32
2022/10/31 01:08:28;;;;;;;14.60;10.03;;;16.40;99.90;;;;;;5088133;28;20245;-32
2022/10/31 01:11:06;;;;;;;14.57;9.33;;;16.40;99.90;;;;;;5090198;28;20314;-32
2022/10/31 01:13:34;;;;;;;14.33;10.00;;;16.30;99.90;;;;;;5099823;28;20293;-32
2022/10/31 01:16:04;;;;;;;15.73;9.97;;;16.30;99.90;;;;;;5086343;28;20203;-32
2022/10/31 01:18:31;;;;;;;12.30;10.13;;;16.30;99.90;;;;;;5088165;28;20305;-32
2022/10/31 01:21:08;;;;;;;14.57;10.07;;;16.30;99.90;;;;;;5094877;28;20767;-32
2022/10/31 01:23:35;;;;;;;17.03;10.20;;;16.20;99.90;;;;;;5086150;28;20639;-31
2022/10/31 01:26:14;;;;;;;12.53;9.60;;;16.20;99.90;;;;;;5096546;28;20222;-32
2022/10/31 01:28:50;;;;;;;14.33;9.80;;;16.20;99.90;;;;;;5092306;28;20925;-31
2022/10/31 01:31:19;;;;;;;21.73;9.90;;;16.20;99.90;;;;;;5089992;28;20543;-31
2022/10/31 01:33:47;;;;;;;14.82;9.77;;;16.10;99.90;;;;;;5088463;28;20560;-32
2022/10/31 01:36:28;;;;;;;13.67;9.67;;;16.10;99.90;;;;;;5093210;28;20197;-31
2022/10/31 01:39:01;;;;;;;14.80;9.57;;;16.10;99.90;;;;;;5084998;28;20210;-31
2022/10/31 01:41:31;;;;;;;15.60;9.57;;;16.10;99.90;;;;;;5087020;28;20305;-31
2022/10/31 01:44:01;;;;;;;12.90;9.73;;;16.10;99.90;;;;;;5086850;28;20302;-31
2022/10/31 01:46:39;;;;;;;13.87;9.53;;;16.10;99.90;;;;;;5088196;28;20198;-32
2022/10/31 01:49:17;;;;;;;13.63;9.95;;;16.00;99.90;;;;;;5096407;28;20855;-31
2022/10/31 01:51:56;;;;;;;13.00;9.20;;;16.00;99.90;;;;;;5085106;28;20187;-31
2022/10/31 01:54:31;;;;;;;12.35;9.15;;;16.00;99.90;;;;;;5091674;28;20298;-31
2022/10/31 01:57:00;;;;;;;14.25;10.35;;;16.00;99.90;;;;;;5093433;28;20226;-32
2022/10/31 01:59:36;;;;;;;14.97;9.50;;;15.90;99.90;;;;;;5094750;28;20222;-32
2022/10/31 02:02:03;;;;;;;13.65;9.85;;;16.00;99.90;;;;;;5087481;28;20216;-32
2022/10/31 02:04:31;;;;;;;14.37;9.60;;;15.90;99.90;;;;;;5088204;28;20210;-32
2022/10/31 02:07:04;;;;;;;16.90;9.93;;;15.90;99.90;;;;;;5089690;28;20587;-33
2022/10/31 02:09:33;;;;;;;13.87;9.63;;;15.90;99.90;;;;;;5101262;27;20309;-31
2022/10/31 02:12:01;;;;;;;14.73;9.63;;;15.90;99.90;;;;;;5090641;28;20259;-32
2022/10/31 02:14:33;;;;;;;13.53;9.90;;;15.90;99.90;;;;;;5089444;28;20294;-32
2022/10/31 02:17:03;;;;;;;11.90;9.23;;;15.90;99.90;;;;;;5087451;28;21070;-31
2022/10/31 02:19:54;;;;;;;13.00;9.37;;;15.80;99.90;;;;;;5095269;28;20246;-31
2022/10/31 02:22:30;;;;;;;14.60;9.30;;;15.80;99.90;;;;;;5087573;28;20618;-31
2022/10/31 02:25:21;;;;;;;13.23;9.93;;;15.80;99.90;;;;;;5093155;28;21025;-30
2022/10/31 02:28:34;;;;;;;14.23;9.70;;;15.80;99.90;;;;;;5083674;28;20218;-32
2022/10/31 02:31:16;;;;;;;13.50;9.90;;;15.70;99.90;;;;;;5085054;28;20246;-31
2022/10/31 02:33:53;;;;;;;11.87;9.07;;;15.70;99.90;;;;;;5082882;28;20315;-31
2022/10/31 02:36:25;;;;;;;13.93;9.80;;;15.60;99.90;;;;;;5086258;28;20284;-31
2022/10/31 02:39:10;;;;;;;14.93;10.00;;;15.60;99.90;;;;;;5088957;28;20222;-30
2022/10/31 02:41:57;;;;;;;14.03;9.60;;;15.50;99.90;;;;;;5090306;28;20207;-31
2022/10/31 02:44:44;;;;;;;13.63;9.43;;;15.50;99.90;;;;;;5088713;28;20330;-31
2022/10/31 02:47:17;;;;;;;14.80;9.60;;;15.40;99.90;;;;;;5091813;28;20307;-31
2022/10/31 02:49:54;;;;;;;18.13;10.00;;;15.30;99.90;;;;;;5086457;28;20788;-33
2022/10/31 02:52:25;;;;;;;10.80;8.87;;;15.30;99.90;;;;;;5088914;28;20257;-32
2022/10/31 02:54:53;;;;;;;14.70;10.13;;;15.30;99.90;;;;;;5088423;28;20421;-31
2022/10/31 02:57:27;;;;;;;16.07;10.40;;;15.30;99.90;;;;;;5094242;28;20226;-32
2022/10/31 03:00:06;;;;;;;10.97;9.20;;;15.30;99.90;;;;;;5084186;28;20596;-31
2022/10/31 03:03:00;;;;;;;14.33;9.77;;;15.20;99.90;;;;;;5089850;28;20684;-31
2022/10/31 03:05:28;;;;;;;14.83;9.53;;;15.20;99.90;;;;;;5087820;28;20583;-32
2022/10/31 03:08:16;;;;;;;13.50;10.13;;;15.20;99.90;;;;;;5093389;28;20205;-31
2022/10/31 03:11:03;;;;;;;13.27;9.17;;;15.20;99.90;;;;;;5088540;28;20622;-31
2022/10/31 03:13:33;;;;;;;12.53;10.20;;;15.20;99.90;;;;;;5088068;28;20648;-31
2022/10/31 03:16:29;;;;;;;13.37;9.47;;;15.20;99.90;;;;;;5094650;28;20213;-31
2022/10/31 03:19:05;;;;;;;14.53;9.40;;;15.20;99.90;;;;;;5094478;28;20198;-31
2022/10/31 03:21:39;;;;;;;14.33;9.67;;;15.10;99.90;;;;;;5090535;28;20428;-32
2022/10/31 03:24:13;;;;;;;13.00;9.43;;;15.10;99.90;;;;;;5085145;28;20220;-32
2022/10/31 03:26:48;;;;;;;16.40;10.17;;;15.00;99.90;;;;;;5089170;28;20195;-31
2022/10/31 03:29:18;;;;;;;12.37;9.10;;;15.10;99.90;;;;;;5088699;28;20284;-30
2022/10/31 03:31:51;;;;;;;13.10;9.80;;;15.00;99.90;;;;;;5084990;28;20197;-31
2022/10/31 03:34:20;;;;;;;13.93;10.13;;;15.00;99.90;;;;;;5086564;28;20285;-31
2022/10/31 03:36:52;;;;;;;13.80;9.43;;;15.00;99.90;;;;;;5097546;28;20498;-31
2022/10/31 03:39:22;;;;;;;12.97;9.47;;;15.00;99.90;;;;;;5097279;28;20214;-31
2022/10/31 03:42:22;;;;;;;17.57;9.97;;;15.00;99.90;;;;;;5091692;28;20715;-31
2022/10/31 03:45:16;;;;;;;12.83;9.93;;;15.00;99.90;;;;;;5088652;28;20234;-31
2022/10/31 03:47:44;;;;;;;11.93;9.43;;;15.00;99.90;;;;;;5091068;28;20569;-31
2022/10/31 03:50:14;;;;;;;13.30;9.23;;;15.00;99.90;;;;;;5090659;28;20218;-31
2022/10/31 03:53:01;;;;;;;13.73;9.47;;;15.00;99.90;;;;;;5088284;28;20249;-31
2022/10/31 03:55:42;;;;;;;12.17;9.30;;;14.90;99.90;;;;;;5095284;28;20201;-31
2022/10/31 03:58:39;;;;;;;14.50;9.20;;;14.90;99.90;;;;;;5088052;28;20205;-31
2022/10/31 04:01:11;;;;;;;13.53;9.33;;;14.90;99.90;;;;;;5089577;28;20294;-31
2022/10/31 04:03:39;;;;;;;12.17;9.40;;;14.90;99.90;;;;;;5087339;28;20225;-31
2022/10/31 04:06:10;;;;;;;12.27;8.83;;;14.90;99.90;;;;;;5083089;28;20517;-31
2022/10/31 04:08:45;;;;;;;12.40;9.70;;;14.90;99.90;;;;;;5097296;28;20453;-32
2022/10/31 04:11:15;;;;;;;12.87;9.57;;;14.90;99.90;;;;;;5089141;28;20556;-31
2022/10/31 04:13:45;;;;;;;12.57;9.83;;;14.80;99.90;;;;;;5086235;28;20202;-31
2022/10/31 04:16:14;;;;;;;12.37;8.80;;;14.80;99.90;;;;;;5086210;28;20227;-31
2022/10/31 04:18:43;;;;;;;12.93;8.93;;;14.80;99.90;;;;;;5095124;28;20190;-31
2022/10/31 04:21:11;;;;;;;11.20;8.53;;;14.80;99.90;;;;;;5085981;28;20226;-31
2022/10/31 04:23:38;;;;;;;15.77;9.47;;;14.80;99.90;;;;;;5091354;28;20198;-31
2022/10/31 04:26:05;;;;;;;14.00;9.10;;;14.80;99.90;;;;;;5086949;28;20569;-31
2022/10/31 04:28:33;;;;;;;11.50;8.73;;;14.70;99.90;;;;;;5095284;28;20222;-31
2022/10/31 04:31:00;;;;;;;13.97;9.17;;;14.70;99.90;;;;;;5087706;28;20228;-31
2022/10/31 04:33:27;;;;;;;12.77;9.13;;;14.70;99.90;;;;;;5091470;28;20207;-31
2022/10/31 04:35:55;;;;;;;13.83;9.07;;;14.60;99.90;;;;;;5089878;28;20230;-31
2022/10/31 04:38:22;;;;;;;11.70;8.70;;;14.60;99.90;;;;;;5085547;28;20282;-31
2022/10/31 04:40:49;;;;;;;12.97;8.97;;;14.60;99.90;;;;;;5091488;28;20213;-31
2022/10/31 04:43:16;;;;;;;13.13;9.40;;;14.60;99.90;;;;;;5090760;28;20199;-31
2022/10/31 04:45:43;;;;;;;14.20;8.60;;;14.60;99.90;;;;;;5090770;28;20737;-31
2022/10/31 04:48:10;;;;;;;15.50;9.80;;;14.60;99.90;;;;;;5094572;28;20206;-31
2022/10/31 04:50:37;;;;;;;10.07;8.63;;;14.60;99.90;;;;;;5093317;28;20225;-31
2022/10/31 04:53:05;;;;;;;12.90;9.33;;;14.60;99.90;;;;;;5089668;28;20314;-31
2022/10/31 04:55:35;;;;;;;12.80;8.83;;;14.60;99.90;;;;;;5097550;28;20289;-31
2022/10/31 04:58:05;;;;;;;12.83;9.33;;;14.60;99.90;;;;;;5090286;28;20211;-31
2022/10/31 05:00:32;;;;;;;13.67;9.13;;;14.60;99.90;;;;;;5086487;28;20207;-31
2022/10/31 05:03:00;;;;;;;14.80;10.13;;;14.60;99.90;;;;;;5101512;28;20313;-31
2022/10/31 05:05:30;;;;;;;16.93;9.60;;;14.60;99.90;;;;;;5091032;28;20205;-31
2022/10/31 05:07:57;;;;;;;16.00;9.93;;;14.60;99.90;;;;;;5091288;28;20732;-31
2022/10/31 05:10:27;;;;;;;14.63;10.07;;;14.60;99.90;;;;;;5099190;28;20583;-31
2022/10/31 05:12:56;;;;;;;21.30;10.23;;;14.70;99.90;;;;;;5089571;28;20736;-31
2022/10/31 05:15:32;;;;;;;14.97;10.17;;;14.70;99.90;;;;;;5093037;28;20198;-33
2022/10/31 05:18:00;;;;;;;12.33;9.43;;;14.70;99.90;;;;;;5094186;28;20284;-32
2022/10/31 05:20:30;;;;;;;14.07;9.17;;;14.70;99.90;;;;;;5096485;28;20226;-32
2022/10/31 05:22:58;;;;;;;14.10;9.87;;;14.70;99.90;;;;;;5095692;28;20724;-31
2022/10/31 05:25:27;;;;;;;14.57;9.50;;;14.70;99.90;;;;;;5102240;28;20229;-32
2022/10/31 05:27:55;;;;;;;13.07;9.27;;;14.70;99.90;;;;;;5098420;28;20215;-32
2022/10/31 05:30:28;;;;;;;12.67;9.97;;;14.60;99.90;;;;;;5090818;28;20305;-32
2022/10/31 05:32:56;;;;;;;15.63;10.20;;;14.60;99.90;;;;;;5097963;28;20699;-32
2022/10/31 05:35:32;;;;;;;15.53;10.33;;;14.60;99.90;;;;;;5097025;28;20907;-32
2022/10/31 05:37:59;;;;;;;12.63;9.70;;;14.60;99.90;;;;;;5100109;28;20915;-31
2022/10/31 05:40:27;;;;;;;15.27;9.47;;;14.60;99.90;;;;;;5099761;28;20190;-31
2022/10/31 05:42:55;;;;;;;12.87;9.30;;;14.60;99.90;;;;;;5095980;28;20230;-32
2022/10/31 05:45:23;;;;;;;15.90;9.77;;;14.60;99.90;;;;;;5089096;28;20198;-31
2022/10/31 05:48:01;;;;;;;14.03;9.27;;;14.60;99.90;;;;;;5075123;28;20256;-31
2022/10/31 05:50:30;;;;;;;14.93;9.20;;;14.70;99.90;;;;;;5087166;28;20588;-32
2022/10/31 05:53:03;;;;;;;16.17;9.77;;;14.60;99.90;;;;;;5086460;28;20199;-32
2022/10/31 05:55:32;;;;;;;14.00;10.07;;;14.70;99.90;;;;;;5099857;28;20224;-31
2022/10/31 05:58:00;;;;;;;14.03;10.00;;;14.70;99.90;;;;;;5092577;28;20190;-31
2022/10/31 06:00:31;;;;;;;13.03;9.37;;;14.70;99.90;;;;;;5093966;28;20201;-31
2022/10/31 06:03:06;;;;;;;16.07;9.40;;;14.70;99.90;;;;;;5087721;28;20195;-31
2022/10/31 06:05:33;;;;;;;11.00;9.07;;;14.70;99.90;;;;;;5092975;28;20205;-31
2022/10/31 06:08:00;;;;;;;17.53;9.70;;;14.70;99.90;;;;;;5100747;28;20209;-31
2022/10/31 06:10:28;;;;;;;14.00;9.23;;;14.70;99.90;;;;;;5090852;28;20776;-31
2022/10/31 06:12:58;;;;;;;13.83;9.57;;;14.70;99.90;;;;;;5092301;28;20267;-31
2022/10/31 06:15:25;;;;;;;14.87;9.80;;;14.70;99.90;;;;;;5088649;28;20202;-31
2022/10/31 06:18:03;;;;;;;14.10;9.83;;;14.70;99.90;;;;;;5097618;28;20306;-31
2022/10/31 06:20:31;;;;;;;13.53;9.87;;;14.70;99.90;;;;;;5099139;28;20345;-31
2022/10/31 06:22:59;;;;;;;13.50;9.40;;;14.70;99.90;;;;;;5090067;28;20294;-31
2022/10/31 06:25:27;;;;;;;17.37;9.27;;;14.70;99.90;;;;;;5091917;28;20421;-31
2022/10/31 06:27:54;;;;;;;13.00;9.23;;;14.70;99.90;;;;;;5092529;28;20298;-31
2022/10/31 06:30:25;;;;;;;15.40;10.57;;;14.70;99.90;;;;;;5089539;28;20214;-31
2022/10/31 06:33:00;;;;;;;14.17;9.67;;;14.70;99.90;;;;;;5097637;28;20434;-31
2022/10/31 06:35:28;;;;;;;14.57;9.07;;;14.70;99.90;;;;;;5085807;28;20721;-31
2022/10/31 06:37:56;;;;;;;19.33;10.93;;;14.70;99.90;;;;;;5083633;28;20199;-31
2022/10/31 06:40:23;;;;;;;21.93;10.23;;;14.70;99.90;;;;;;5090109;28;20283;-31
2022/10/31 06:42:58;;;;;;;25.30;10.90;;;14.70;99.90;;;;;;5091892;28;20731;-31
2022/10/31 06:45:25;;;;;;;20.03;10.63;;;14.70;99.90;;;;;;5093967;28;20252;-31
2022/10/31 06:47:56;;;;;;;16.17;10.40;;;14.80;99.90;;;;;;5093375;28;20556;-31
2022/10/31 06:50:42;;;;;;;21.33;10.63;;;14.70;99.90;;;;;;5094327;28;20223;-31
2022/10/31 06:53:10;;;;;;;23.37;10.80;;;14.80;99.90;;;;;;5084601;28;20632;-31
2022/10/31 06:55:40;;;;;;;21.23;11.40;;;14.80;99.90;;;;;;5089710;28;20253;-31
2022/10/31 06:58:09;;;;;;;16.57;9.97;;;14.80;99.90;;;;;;5083104;28;20676;-31
2022/10/31 07:00:37;;;;;;;18.77;10.47;;;14.80;99.90;;;;;;5091716;28;20196;-31
2022/10/31 07:03:10;;;;;;;21.93;10.67;;;14.90;99.90;;;;;;5088207;28;20202;-31
2022/10/31 07:05:38;;;;;;;20.13;10.93;;;14.90;99.90;;;;;;5094425;28;20622;-31
2022/10/31 07:08:08;;;;;;;19.80;11.33;;;14.90;99.90;;;;;;5097936;28;20943;-31
2022/10/31 07:10:36;;;;;;;19.43;12.17;;;14.90;99.90;;;;;;5089672;28;20215;-31
2022/10/31 07:13:13;;;;;;;19.60;11.73;;;15.00;99.90;;;;;;5082518;28;20202;-31
2022/10/31 07:15:42;;;;;;;21.60;12.23;;;15.00;99.90;;;;;;5096882;28;20681;-31
2022/10/31 07:18:10;;;;;;;15.97;11.17;;;15.00;99.90;;;;;;5084915;28;20234;-31
2022/10/31 07:20:38;;;;;;;17.83;10.93;;;15.00;99.90;;;;;;5099857;28;20755;-31
2022/10/31 07:23:05;;;;;;;14.43;10.67;;;15.10;99.90;;;;;;5089306;28;20710;-33
2022/10/31 07:25:33;;;;;;;13.20;10.53;;;15.10;99.90;;;;;;5082522;28;20230;-33
2022/10/31 07:28:02;;;;;;;16.17;10.90;;;15.20;99.90;;;;;;5098899;28;20195;-31
2022/10/31 07:30:32;;;;;;;13.20;10.33;;;15.20;99.90;;;;;;5104957;28;20317;-31
2022/10/31 07:32:59;;;;;;;14.80;10.47;;;15.20;99.90;;;;;;5095828;28;21037;-31
2022/10/31 07:35:28;;;;;;;14.03;10.93;;;15.30;99.90;;;;;;5089239;28;20716;-31
2022/10/31 07:37:55;;;;;;;14.57;10.17;;;15.30;99.90;;;;;;5087319;28;20247;-31
2022/10/31 07:40:24;;;;;;;15.07;10.20;;;15.30;99.90;;;;;;5094677;28;21520;-30
2022/10/31 07:42:52;;;;;;;15.53;10.63;;;15.40;99.90;;;;;;5086803;28;20309;-31
2022/10/31 07:45:20;;;;;;;14.90;10.47;;;15.40;99.90;;;;;;5086694;28;20213;-31
2022/10/31 07:47:52;;;;;;;16.17;10.87;;;15.50;99.90;;;;;;5091629;28;20685;-31
2022/10/31 07:50:21;;;;;;;15.67;10.37;;;15.50;99.90;;;;;;5083345;28;20262;-31
2022/10/31 07:52:57;;;;;;;17.80;11.50;;;15.50;99.90;;;;;;5082539;28;20210;-31
2022/10/31 07:55:30;;;;;;;16.30;11.03;;;15.50;99.90;;;;;;5089689;28;20666;-30
2022/10/31 07:57:58;;;;;;;15.13;10.83;;;15.60;99.90;;;;;;5089308;28;21657;-31
2022/10/31 08:00:29;;;;;;;13.47;10.47;;;15.60;99.90;;;;;;5099673;28;20198;-35
2022/10/31 08:03:17;;;;;;;13.83;10.03;;;15.60;99.90;;;;;;5086184;28;21122;-31
2022/10/31 08:05:45;;;;;;;18.37;9.67;;;15.70;99.90;;;;;;5086627;28;20294;-31
2022/10/31 08:08:14;;;;;;;13.23;10.20;;;15.70;99.90;;;;;;5091463;28;20206;-31
2022/10/31 08:10:42;;;;;;;18.57;11.07;;;15.70;99.90;;;;;;5097415;28;20250;-31
2022/10/31 08:13:11;;;;;;;14.13;11.00;;;15.80;99.90;;;;;;5096458;28;20195;-31
2022/10/31 08:15:41;;;;;;;14.27;11.10;;;15.80;99.90;;;;;;5081077;28;20226;-31
2022/10/31 08:18:15;;;;;;;15.60;10.87;;;15.80;99.90;;;;;;5087529;28;20214;-31
2022/10/31 08:20:43;;;;;;;15.87;10.70;;;15.90;99.90;;;;;;5087399;28;20294;-31
2022/10/31 08:23:14;;;;;;;16.70;11.07;;;15.90;99.90;;;;;;5093863;28;20210;-30
2022/10/31 08:25:43;;;;;;;16.03;9.93;;;15.90;99.90;;;;;;5096229;28;20191;-31
2022/10/31 08:28:11;;;;;;;17.30;10.77;;;16.00;99.90;;;;;;5095813;28;20309;-31
2022/10/31 08:30:39;;;;;;;21.00;10.37;;;16.00;99.90;;;;;;5099725;28;20865;-31
2022/10/31 08:33:17;;;;;;;23.30;11.00;;;16.00;99.90;;;;;;5094991;28;20312;-31
2022/10/31 08:35:44;;;;;;;23.07;10.63;;;16.10;99.90;;;;;;5094128;28;20214;-31
2022/10/31 08:38:13;;;;;;;20.60;11.50;;;16.10;99.90;;;;;;5097961;28;20642;-31
2022/10/31 08:40:42;;;;;;;22.07;10.77;;;16.20;99.90;;;;;;5089680;28;20655;-31
2022/10/31 08:43:13;;;;;;;21.67;10.63;;;16.20;99.90;;;;;;5097962;28;20195;-31
2022/10/31 08:45:41;;;;;;;15.60;9.77;;;16.30;99.90;;;;;;5088225;28;20685;-31
2022/10/31 08:48:11;;;;;;;16.77;9.80;;;16.30;99.90;;;;;;5096173;28;20195;-31
2022/10/31 08:50:38;;;;;;;15.70;10.20;;;16.40;99.90;;;;;;5087693;28;20230;-31
2022/10/31 08:53:10;;;;;;;18.60;10.40;;;16.40;99.90;;;;;;5092145;28;20322;-30
2022/10/31 08:55:41;;;;;;;18.73;10.50;;;16.50;99.90;;;;;;5102274;28;20239;-32
2022/10/31 08:58:14;;;;;;;15.80;10.40;;;16.50;99.90;;;;;;5093045;28;20218;-30
2022/10/31 09:00:41;;;;;;;14.23;9.20;;;16.60;99.90;;;;;;5092934;28;20194;-30
2022/10/31 09:03:14;;;;;;;13.33;9.10;;;16.60;99.90;;;;;;5102187;28;20241;-30
2022/10/31 09:05:42;;;;;;;18.20;10.87;;;16.70;99.90;;;;;;5084758;28;20244;-31
2022/10/31 09:08:14;;;;;;;16.37;9.00;;;16.70;99.90;;;;;;5101378;28;20198;-31
2022/10/31 09:10:44;;;;;;;13.97;9.50;;;16.80;99.90;;;;;;5086034;28;20665;-32
2022/10/31 09:13:16;;;;;;;16.47;9.67;;;16.80;99.90;;;;;;5089197;28;20835;-31
2022/10/31 09:15:46;;;;;;;15.07;10.10;;;16.80;99.90;;;;;;5088552;28;20210;-32
2022/10/31 09:18:19;;;;;;;12.93;8.90;;;16.80;99.90;;;;;;5097070;28;20267;-31
2022/10/31 09:20:47;;;;;;;14.10;9.33;;;16.90;99.90;;;;;;5093027;28;20235;-31
2022/10/31 09:23:23;;;;;;;15.03;8.83;;;16.90;99.90;;;;;;5100322;28;20319;-30
2022/10/31 09:25:53;;;;;;;18.20;10.20;;;17.00;99.90;;;;;;5096885;28;20202;-31
2022/10/31 09:28:22;;;;;;;15.97;9.23;;;17.00;99.90;;;;;;5091583;28;20610;-31
2022/10/31 09:30:53;;;;;;;17.83;10.60;;;17.10;99.90;;;;;;5088356;28;20264;-31
2022/10/31 09:33:21;;;;;;;16.33;10.10;;;17.10;99.90;;;;;;5091093;28;20234;-31
2022/10/31 09:35:51;;;;;;;16.40;10.70;;;17.10;99.90;;;;;;5102274;28;20202;-33
2022/10/31 09:38:20;;;;;;;15.00;10.50;;;17.20;99.90;;;;;;5103060;28;20297;-33
2022/10/31 09:41:06;;;;;;;18.43;9.93;;;17.20;99.90;;;;;;5096570;28;20672;-30
2022/10/31 09:43:49;;;;;;;15.23;10.37;;;17.30;99.90;;;;;;5085470;28;20277;-31
2022/10/31 09:46:29;;;;;;;16.53;10.33;;;17.30;99.90;;;;;;5085346;28;20242;-30
2022/10/31 09:49:17;;;;;;;19.17;10.83;;;17.40;99.90;;;;;;5087086;28;20210;-31
2022/10/31 09:51:51;;;;;;;15.07;10.93;;;17.40;99.90;;;;;;5089155;28;20578;-31
2022/10/31 09:54:27;;;;;;;14.27;10.60;;;17.40;99.90;;;;;;5087205;28;20680;-31
2022/10/31 09:56:57;;;;;;;19.17;11.53;;;17.50;99.90;;;;;;5100504;28;20262;-31
2022/10/31 09:59:35;;;;;;;14.10;10.17;;;17.50;99.90;;;;;;5102748;28;20284;-31
2022/10/31 10:02:13;;;;;;;19.33;10.67;;;17.50;99.90;;;;;;5092637;28;20359;-32
2022/10/31 10:04:59;;;;;;;15.07;11.10;;;17.50;99.90;;;;;;5092369;28;20199;-31
2022/10/31 10:07:32;;;;;;;16.73;10.27;;;17.60;99.90;;;;;;5086918;28;20616;-31
2022/10/31 10:10:17;;;;;;;18.23;11.13;;;17.70;99.90;;;;;;5099046;28;20206;-31
2022/10/31 10:13:10;;;;;;;18.43;11.53;;;17.70;99.90;;;;;;5090007;28;20682;-31
2022/10/31 10:16:05;;;;;;;14.48;9.93;;;17.80;99.90;;;;;;5098951;28;20722;-31
2022/10/31 10:18:51;;;;;;;16.07;10.23;;;17.80;99.90;;;;;;5083578;28;20209;-32
2022/10/31 10:21:37;;;;;;;21.47;11.47;;;17.90;99.90;;;;;;5088389;28;20226;-31
2022/10/31 10:24:27;;;;;;;17.92;10.57;;;17.90;99.90;;;;;;5095964;28;20207;-31
2022/10/31 10:27:26;;;;;;;17.23;11.57;;;18.00;99.90;;;;;;5085693;28;20214;-32
2022/10/31 10:30:04;;;;;;;13.17;10.33;;;18.10;99.90;;;;;;5092184;27;21730;-31
2022/10/31 10:32:43;;;;;;;18.17;11.43;;;18.20;99.90;;;;;;5086921;28;20210;-31
2022/10/31 10:35:20;;;;;;;17.93;11.73;;;18.20;99.90;;;;;;5089807;28;20195;-31
2022/10/31 10:37:52;;;;;;;17.73;11.00;;;18.20;99.90;;;;;;5093884;28;20646;-31
2022/10/31 10:40:27;;;;;;;19.87;11.03;;;18.30;99.90;;;;;;5089286;28;20237;-31
2022/10/31 10:49:19;;;;;;;16.17;10.48;;;18.40;99.90;;;;;;5077166;28;20207;-31
2022/10/31 10:52:10;;;;;;;14.83;10.27;;;18.40;99.90;;;;;;5070798;28;20253;-32
2022/10/31 10:55:11;;;;;;;16.40;9.90;;;18.50;99.90;;;;;;5076236;28;20564;-31
2022/10/31 10:57:56;;;;;;;16.10;10.60;;;18.60;99.90;;;;;;5090545;28;20205;-31
2022/10/31 11:00:25;;;;;;;15.15;10.32;;;18.60;99.90;;;;;;5089413;28;20190;-32
2022/10/31 11:02:53;;;;;;;18.13;10.75;;;18.70;99.90;;;;;;5091208;28;20202;-31
2022/10/31 11:05:23;;;;;;;20.27;10.87;;;18.80;99.90;;;;;;5084082;28;20195;-31
2022/10/31 11:07:53;;;;;;;16.95;9.20;;;18.80;99.90;;;;;;5081717;28;20218;-31
2022/10/31 11:10:21;;;;;;;14.90;9.48;;;18.90;99.90;;;;;;5086960;28;20197;-31
2022/10/31 11:13:23;;;;;;;13.48;8.63;;;18.90;99.90;;;;;;5089149;28;20306;-32
2022/10/31 11:15:55;;;;;;;14.60;8.35;;;19.00;99.90;;;;;;5092580;28;20197;-31
2022/10/31 11:18:28;;;;;;;12.82;7.97;;;19.10;99.90;;;;;;5097175;28;20230;-31
2022/10/31 11:21:02;;;;;;;14.73;8.25;;;19.10;99.90;;;;;;5095760;28;20332;-31
2022/10/31 11:23:30;;;;;;;12.53;7.90;;;19.20;99.90;;;;;;5089961;28;20236;-31
2022/10/31 11:26:04;;;;;;;12.18;8.02;;;19.30;99.90;;;;;;5092292;28;20319;-32
2022/10/31 11:28:34;;;;;;;13.27;7.35;;;19.30;99.90;;;;;;5084673;28;20206;-32
2022/10/31 11:31:14;;;;;;;11.68;7.05;;;19.40;99.90;;;;;;5085579;28;20294;-31
2022/10/31 11:33:47;;;;;;;16.27;8.07;;;19.40;99.90;;;;;;5086176;28;20316;-31
2022/10/31 11:36:16;;;;;;;14.40;8.23;;;19.50;99.90;;;;;;5086951;28;20484;-31
2022/10/31 11:38:44;;;;;;;13.87;7.47;;;19.50;99.90;;;;;;5091812;28;20216;-32
2022/10/31 11:41:15;;;;;;;14.55;7.05;;;19.60;99.90;;;;;;5088936;28;20210;-31
2022/10/31 11:43:58;;;;;;;13.75;7.70;;;19.60;99.90;;;;;;5089486;28;20195;-31
2022/10/31 11:46:39;;;;;;;20.40;7.68;;;19.60;99.90;;;;;;5087316;28;20234;-31
2022/10/31 11:49:17;;;;;;;12.93;7.72;;;19.60;99.90;;;;;;5080942;28;20254;-34
2022/10/31 11:51:49;;;;;;;10.52;7.75;;;19.70;99.90;;;;;;5097736;28;20220;-32
2022/10/31 11:54:30;;;;;;;14.77;8.18;;;19.70;99.90;;;;;;5088200;28;20625;-33
2022/10/31 11:56:58;;;;;;;12.35;7.55;;;19.80;99.90;;;;;;5086080;28;20602;-32
2022/10/31 11:59:28;;;;;;;12.65;7.78;;;19.80;99.90;;;;;;5091162;28;20245;-32
2022/10/31 12:02:00;;;;;;;15.05;7.65;;;19.80;99.90;;;;;;5090341;28;20293;-33
2022/10/31 12:04:51;;;;;;;10.82;7.60;;;19.90;99.90;;;;;;5094223;28;20205;-32
2022/10/31 12:07:18;;;;;;;18.85;8.20;;;19.90;99.90;;;;;;5100587;28;20271;-32
2022/10/31 12:09:45;;;;;;;15.50;8.15;;;20.00;99.90;;;;;;5089804;28;20252;-32
2022/10/31 12:12:40;;;;;;;11.10;7.40;;;20.00;99.90;;;;;;5096282;28;20416;-30
2022/10/31 12:15:16;;;;;;;14.70;8.32;;;20.00;99.90;;;;;;5092365;28;20246;-31
2022/10/31 12:18:07;;;;;;;12.50;8.25;;;20.00;99.90;;;;;;5102393;28;20204;-31
2022/10/31 12:20:52;;;;;;;11.90;7.97;;;20.00;99.90;;;;;;5089459;28;20269;-32
2022/10/31 12:23:28;;;;;;;10.13;7.05;;;20.00;99.90;;;;;;5096825;28;20229;-34
2022/10/31 12:26:13;;;;;;;13.05;7.35;;;20.00;99.90;;;;;;5092625;28;20218;-32
2022/10/31 12:29:19;;;;;;;12.57;7.47;;;20.10;99.90;;;;;;5102952;28;20194;-33
2022/10/31 12:32:03;;;;;;;13.30;7.18;;;20.10;99.90;;;;;;5060269;28;20223;-32
2022/10/31 12:34:30;;;;;;;11.18;6.93;;;20.10;99.90;;;;;;5055785;28;20322;-33
2022/10/31 12:37:06;;;;;;;12.73;6.97;;;20.10;99.90;;;;;;5084487;28;20681;-32
2022/10/31 12:39:47;;;;;;;11.23;7.15;;;20.20;99.90;;;;;;5091843;28;20566;-32
2022/10/31 12:42:24;;;;;;;13.10;6.95;;;20.20;99.90;;;;;;5102517;28;20367;-31
2022/10/31 12:45:14;;;;;;;15.05;7.03;;;20.20;99.90;;;;;;5086555;28;20665;-32
2022/10/31 12:47:54;;;;;;;12.68;6.95;;;20.30;99.90;;;;;;5093892;28;20205;-32
2022/10/31 12:50:21;;;;;;;11.48;7.22;;;20.30;99.90;;;;;;5091784;28;20214;-32
2022/10/31 12:53:19;;;;;;;12.43;7.13;;;20.30;99.90;;;;;;5084110;28;20206;-32
2022/10/31 12:55:53;;;;;;;12.80;6.95;;;20.40;99.90;;;;;;5096774;28;22277;-33
2022/10/31 12:58:27;;;;;;;10.60;7.35;;;20.40;99.90;;;;;;5101982;28;20218;-32
2022/10/31 13:01:20;;;;;;;13.38;6.78;;;20.40;99.90;;;;;;5100173;28;20217;-31
2022/10/31 13:04:31;;;;;;;9.98;6.38;;;20.40;99.90;;;;;;5091842;28;20560;-31
2022/10/31 13:07:03;;;;;;;9.02;5.53;;;20.40;99.90;;;;;;5064129;28;20282;-32
2022/10/31 13:09:37;;;;;;;15.13;6.80;;;20.40;99.90;;;;;;5079846;28;20302;-32
2022/10/31 13:12:09;;;;;;;7.90;5.20;;;20.40;99.90;;;;;;5083080;28;20633;-31